Time;durP1;ratioP1;P1;durP2;ratioP2;P2;SDS_P1;SDS_P2;PMS_P1;PMS_P2;Temp;Humidity;BMP_temperature;BMP_pressure;BME280_temperature;BME280_humidity;BME280_pressure;Samples;Min_cycle;Max_cycle;Signal;HPM_P1;HPM_P2
2023/08/17 00:00:24;;;;;;;4.72;1.55;;;16.90;99.90;;;;;;5072429;28;20118;-79
2023/08/17 00:02:50;;;;;;;4.22;1.40;;;16.90;99.90;;;;;;5072574;28;20518;-79
2023/08/17 00:05:15;;;;;;;6.07;1.75;;;16.90;99.90;;;;;;5071960;28;20043;-79
2023/08/17 00:07:41;;;;;;;3.95;1.48;;;16.90;99.90;;;;;;5073527;28;20035;-79
2023/08/17 00:10:06;;;;;;;5.05;1.40;;;16.90;99.90;;;;;;5075633;28;20119;-79
2023/08/17 00:12:32;;;;;;;6.63;1.60;;;16.90;99.90;;;;;;5075509;28;20035;-78
2023/08/17 00:14:57;;;;;;;5.68;1.45;;;16.90;99.90;;;;;;5075397;28;20047;-80
2023/08/17 00:17:23;;;;;;;4.95;1.77;;;16.90;99.90;;;;;;5075420;28;20043;-79
2023/08/17 00:19:49;;;;;;;5.03;1.73;;;16.90;99.90;;;;;;5063782;28;20083;-78
2023/08/17 00:22:15;;;;;;;2.17;1.58;;;16.90;99.90;;;;;;5071370;28;20036;-78
2023/08/17 00:24:44;;;;;;;3.35;1.48;;;16.90;99.90;;;;;;5075774;28;20050;-79
2023/08/17 00:27:09;;;;;;;3.53;1.60;;;16.90;99.90;;;;;;5064836;28;20127;-79
2023/08/17 00:29:35;;;;;;;4.22;1.60;;;16.90;99.90;;;;;;5071461;28;20123;-78
2023/08/17 00:32:01;;;;;;;3.30;1.70;;;17.00;99.90;;;;;;5062610;28;20028;-79
2023/08/17 00:34:27;;;;;;;5.10;1.50;;;17.00;99.90;;;;;;5062865;28;20043;-78
2023/08/17 00:36:52;;;;;;;5.75;1.92;;;17.00;99.90;;;;;;5073284;28;20075;-78
2023/08/17 00:39:19;;;;;;;4.40;1.40;;;16.90;99.90;;;;;;5074076;28;20036;-80
2023/08/17 00:41:45;;;;;;;6.15;1.70;;;16.90;99.90;;;;;;5074944;28;20028;-79
2023/08/17 00:44:10;;;;;;;4.70;1.73;;;16.90;99.90;;;;;;5075079;28;20043;-78
2023/08/17 00:46:37;;;;;;;2.83;1.60;;;16.90;99.90;;;;;;5072850;28;20031;-78
2023/08/17 00:49:03;;;;;;;5.32;1.75;;;16.80;99.90;;;;;;5074962;28;20043;-77
2023/08/17 00:51:29;;;;;;;3.80;1.83;;;16.80;99.90;;;;;;5070045;28;20044;-78
2023/08/17 00:53:58;;;;;;;3.35;1.58;;;16.70;99.90;;;;;;5063227;28;20079;-78
2023/08/17 00:56:23;;;;;;;4.40;2.00;;;16.70;99.90;;;;;;5068752;28;20047;-78
2023/08/17 00:58:49;;;;;;;2.90;1.40;;;16.70;99.90;;;;;;5071884;28;20035;-78
2023/08/17 01:01:16;;;;;;;4.97;1.80;;;16.70;99.90;;;;;;5074288;28;20586;-78
2023/08/17 01:03:42;;;;;;;5.93;1.77;;;16.60;99.90;;;;;;5067133;28;20407;-78
2023/08/17 01:06:08;;;;;;;4.88;1.52;;;16.60;99.90;;;;;;5065791;28;20078;-80
2023/08/17 01:08:35;;;;;;;7.55;1.88;;;16.60;99.90;;;;;;5073165;28;20046;-77
2023/08/17 01:11:26;;;;;;;5.15;1.60;;;16.60;99.90;;;;;;5068657;28;20123;-78
2023/08/17 01:14:01;;;;;;;5.72;1.80;;;16.50;99.90;;;;;;5062648;28;20074;-79
2023/08/17 01:16:31;;;;;;;4.30;1.77;;;16.50;99.90;;;;;;5064772;28;20035;-79
2023/08/17 01:19:00;;;;;;;4.70;1.70;;;16.40;99.90;;;;;;5064277;28;20489;-78
2023/08/17 01:21:33;;;;;;;3.75;1.70;;;16.40;99.90;;;;;;5070966;28;20075;-78
2023/08/17 01:24:02;;;;;;;4.28;2.00;;;16.30;99.90;;;;;;5072221;28;20072;-78
2023/08/17 01:26:28;;;;;;;6.28;2.10;;;16.30;99.90;;;;;;5059460;28;20158;-79
2023/08/17 01:28:54;;;;;;;6.03;1.75;;;16.20;99.90;;;;;;5073354;28;20520;-78
2023/08/17 01:31:24;;;;;;;4.45;1.90;;;16.20;99.90;;;;;;5057401;28;20031;-78
2023/08/17 01:33:56;;;;;;;3.78;1.70;;;16.30;99.90;;;;;;5066914;28;21110;-78
2023/08/17 01:36:33;;;;;;;3.88;1.80;;;16.10;99.90;;;;;;5069595;28;20044;-79
2023/08/17 01:39:00;;;;;;;4.40;1.92;;;16.10;99.90;;;;;;5067259;28;20110;-79
2023/08/17 01:41:27;;;;;;;6.03;2.00;;;16.10;99.90;;;;;;5073984;28;20650;-78
2023/08/17 01:43:53;;;;;;;6.88;2.10;;;16.10;99.90;;;;;;5063782;28;20051;-78
2023/08/17 01:46:19;;;;;;;5.65;2.22;;;16.00;99.90;;;;;;5077382;28;20088;-78
2023/08/17 01:48:45;;;;;;;4.28;1.88;;;16.00;99.90;;;;;;5076014;28;20036;-78
2023/08/17 01:51:17;;;;;;;5.82;2.30;;;15.90;99.90;;;;;;5056885;28;20032;-78
2023/08/17 01:53:43;;;;;;;5.28;1.80;;;16.00;99.90;;;;;;5070282;28;20162;-78
2023/08/17 01:56:08;;;;;;;5.78;1.95;;;15.90;99.90;;;;;;5067985;28;20198;-78
2023/08/17 01:58:34;;;;;;;5.55;2.10;;;15.90;99.90;;;;;;5065004;28;20115;-78
2023/08/17 02:00:59;;;;;;;7.28;2.08;;;15.80;99.90;;;;;;5064884;28;20043;-78
2023/08/17 02:03:25;;;;;;;7.65;2.10;;;15.80;99.90;;;;;;5067794;28;20031;-78
2023/08/17 02:05:50;;;;;;;6.55;2.33;;;15.80;99.90;;;;;;5064808;28;20040;-78
2023/08/17 02:08:16;;;;;;;7.15;2.00;;;15.80;99.90;;;;;;5070027;28;20081;-78
2023/08/17 02:10:41;;;;;;;5.80;2.10;;;15.80;99.90;;;;;;5067739;28;20042;-78
2023/08/17 02:13:07;;;;;;;5.97;1.90;;;15.80;99.90;;;;;;5075107;28;20039;-78
2023/08/17 02:15:39;;;;;;;5.85;2.28;;;15.80;99.90;;;;;;5066031;28;20040;-79
2023/08/17 02:18:04;;;;;;;5.03;2.00;;;15.80;99.90;;;;;;5067410;28;20047;-78
2023/08/17 02:20:30;;;;;;;3.97;1.95;;;15.80;99.90;;;;;;5072217;28;20032;-78
2023/08/17 02:22:55;;;;;;;7.70;2.22;;;15.80;99.90;;;;;;5064587;28;20047;-78
2023/08/17 02:25:21;;;;;;;4.97;1.90;;;15.80;99.90;;;;;;5063801;28;20119;-78
2023/08/17 02:27:46;;;;;;;3.92;2.03;;;15.80;99.90;;;;;;5062798;28;20547;-78
2023/08/17 02:30:13;;;;;;;4.00;1.98;;;15.80;99.90;;;;;;5041691;28;20029;-79
2023/08/17 02:32:38;;;;;;;8.70;2.60;;;15.80;99.90;;;;;;5068298;28;20441;-79
2023/08/17 02:35:05;;;;;;;4.30;1.83;;;15.80;99.90;;;;;;5073468;28;20166;-79
2023/08/17 02:37:30;;;;;;;5.30;2.35;;;15.80;99.90;;;;;;5064423;28;20118;-79
2023/08/17 02:39:56;;;;;;;5.53;1.90;;;15.80;99.90;;;;;;5065337;28;20123;-78
2023/08/17 02:42:22;;;;;;;4.93;1.90;;;15.80;99.90;;;;;;5082683;28;20039;-79
2023/08/17 02:44:47;;;;;;;3.58;1.90;;;15.80;99.90;;;;;;5070608;28;20059;-79
2023/08/17 02:47:13;;;;;;;3.38;1.70;;;15.80;99.90;;;;;;5064735;28;20039;-79
2023/08/17 02:49:39;;;;;;;3.53;1.77;;;15.80;99.90;;;;;;5062505;28;20128;-78
2023/08/17 02:52:04;;;;;;;4.57;2.13;;;15.90;99.90;;;;;;5060710;28;20041;-78
2023/08/17 02:54:31;;;;;;;5.25;2.00;;;15.90;99.90;;;;;;5070248;28;20515;-78
2023/08/17 02:56:57;;;;;;;3.58;1.80;;;15.90;99.90;;;;;;5068864;28;20411;-78
2023/08/17 02:59:22;;;;;;;4.40;1.95;;;15.90;99.90;;;;;;5068478;28;20046;-79
2023/08/17 03:01:48;;;;;;;8.45;2.22;;;15.90;99.90;;;;;;5064364;28;20051;-78
2023/08/17 03:04:14;;;;;;;5.38;1.70;;;15.90;99.90;;;;;;5067701;28;20384;-79
2023/08/17 03:06:39;;;;;;;4.75;1.90;;;15.90;99.90;;;;;;5067179;28;20031;-78
2023/08/17 03:09:05;;;;;;;5.95;1.70;;;15.90;99.90;;;;;;5061889;28;20266;-79
2023/08/17 03:11:30;;;;;;;5.20;1.75;;;15.90;99.90;;;;;;5085635;28;20509;-78
2023/08/17 03:13:59;;;;;;;4.78;1.70;;;15.90;99.90;;;;;;5066326;28;20449;-78
2023/08/17 03:16:27;;;;;;;5.30;1.65;;;15.90;99.90;;;;;;5067143;28;20043;-78
2023/08/17 03:18:52;;;;;;;5.47;1.70;;;15.90;99.90;;;;;;5061918;28;20047;-79
2023/08/17 03:21:19;;;;;;;4.10;1.50;;;15.90;99.90;;;;;;5070809;28;20036;-78
2023/08/17 03:23:45;;;;;;;3.70;1.60;;;15.90;99.90;;;;;;5054844;28;20860;-77
2023/08/17 03:26:10;;;;;;;3.38;1.30;;;15.90;99.90;;;;;;5064605;28;20086;-78
2023/08/17 03:28:36;;;;;;;4.80;1.65;;;15.80;99.90;;;;;;5063697;28;20040;-78
2023/08/17 03:31:02;;;;;;;3.95;1.27;;;15.80;99.90;;;;;;5064183;28;20044;-78
2023/08/17 03:33:28;;;;;;;3.50;1.63;;;15.80;99.90;;;;;;5067599;28;20499;-79
2023/08/17 03:35:54;;;;;;;3.30;1.38;;;15.80;99.90;;;;;;5072308;28;20097;-78
2023/08/17 03:38:19;;;;;;;5.43;1.55;;;15.80;99.90;;;;;;5070702;28;20123;-78
2023/08/17 03:40:46;;;;;;;4.97;1.65;;;15.80;99.90;;;;;;5071587;28;20044;-78
2023/08/17 03:43:11;;;;;;;6.07;1.73;;;15.70;99.90;;;;;;5087678;28;20071;-78
2023/08/17 03:45:37;;;;;;;4.25;1.60;;;15.70;99.90;;;;;;5081534;28;20455;-78
2023/08/17 03:48:02;;;;;;;6.10;1.60;;;15.70;99.90;;;;;;5083900;28;20035;-78
2023/08/17 03:50:28;;;;;;;3.20;1.30;;;15.70;99.90;;;;;;5072111;28;20031;-78
2023/08/17 03:52:54;;;;;;;5.80;2.10;;;15.70;99.90;;;;;;5076237;28;20135;-78
2023/08/17 03:55:19;;;;;;;3.45;1.38;;;15.70;99.90;;;;;;5068625;28;20526;-78
2023/08/17 03:57:45;;;;;;;5.47;1.75;;;15.70;99.90;;;;;;5081149;28;20064;-78
2023/08/17 04:00:11;;;;;;;5.18;1.50;;;15.70;99.90;;;;;;5065950;28;20049;-78
2023/08/17 04:02:37;;;;;;;4.68;1.40;;;15.70;99.90;;;;;;5060881;28;20055;-78
2023/08/17 04:05:03;;;;;;;4.57;1.60;;;15.60;99.90;;;;;;5073485;28;20047;-78
2023/08/17 04:07:28;;;;;;;4.35;1.70;;;15.60;99.90;;;;;;5075057;28;20093;-78
2023/08/17 04:09:54;;;;;;;4.03;1.50;;;15.60;99.90;;;;;;5070175;28;20123;-78
2023/08/17 04:12:20;;;;;;;4.45;1.60;;;15.50;99.90;;;;;;5058840;28;20499;-79
2023/08/17 04:14:45;;;;;;;7.55;1.88;;;15.50;99.90;;;;;;5066719;28;20185;-79
2023/08/17 04:17:11;;;;;;;3.85;1.60;;;15.50;99.90;;;;;;5071042;28;20043;-78
2023/08/17 04:19:37;;;;;;;3.55;1.38;;;15.50;99.90;;;;;;5064396;28;20048;-78
2023/08/17 04:22:03;;;;;;;4.57;1.63;;;15.50;99.90;;;;;;5066159;28;20040;-78
2023/08/17 04:24:28;;;;;;;7.88;2.00;;;15.50;99.90;;;;;;5067091;28;20129;-77
2023/08/17 04:26:54;;;;;;;5.93;1.60;;;15.50;99.90;;;;;;5065820;28;20081;-78
2023/08/17 04:29:20;;;;;;;4.82;1.48;;;15.40;99.90;;;;;;5067323;28;20032;-77
2023/08/17 04:31:45;;;;;;;2.97;1.60;;;15.50;99.90;;;;;;5064489;28;20045;-78
2023/08/17 04:34:11;;;;;;;4.95;1.70;;;15.50;99.90;;;;;;5070993;28;20089;-78
2023/08/17 04:36:36;;;;;;;6.43;1.85;;;15.40;99.90;;;;;;5067321;28;20131;-77
2023/08/17 04:39:04;;;;;;;5.85;1.40;;;15.50;99.90;;;;;;5069992;28;20036;-77
2023/08/17 04:41:30;;;;;;;6.10;1.60;;;15.40;99.90;;;;;;5062680;28;20101;-76
2023/08/17 04:43:55;;;;;;;3.90;1.42;;;15.50;99.90;;;;;;5070748;28;20062;-78
2023/08/17 04:46:21;;;;;;;5.43;1.63;;;15.50;99.90;;;;;;5063818;28;20075;-77
2023/08/17 04:48:46;;;;;;;7.72;2.00;;;15.50;99.90;;;;;;5073361;28;20043;-77
2023/08/17 04:51:12;;;;;;;5.15;1.80;;;15.50;99.90;;;;;;5083969;28;20039;-77
2023/08/17 04:53:37;;;;;;;4.22;1.65;;;15.50;99.90;;;;;;5063818;28;20036;-78
2023/08/17 04:56:04;;;;;;;7.05;1.90;;;15.50;99.90;;;;;;5073627;28;20089;-79
2023/08/17 04:58:29;;;;;;;6.85;1.92;;;15.50;99.90;;;;;;5065400;28;20578;-77
2023/08/17 05:00:55;;;;;;;4.57;1.67;;;15.50;99.90;;;;;;5069171;28;20127;-77
2023/08/17 05:03:20;;;;;;;3.47;1.50;;;15.50;99.90;;;;;;5073712;28;20411;-78
2023/08/17 05:05:46;;;;;;;3.38;1.60;;;15.50;99.90;;;;;;5062480;28;20175;-77
2023/08/17 05:08:12;;;;;;;5.47;2.05;;;15.50;99.90;;;;;;5062279;28;20036;-77
2023/08/17 05:10:37;;;;;;;6.47;2.08;;;15.50;99.90;;;;;;5066338;28;20067;-78
2023/08/17 05:13:03;;;;;;;6.47;1.75;;;15.60;99.90;;;;;;5072751;28;20036;-78
2023/08/17 05:15:28;;;;;;;4.00;1.50;;;15.50;99.90;;;;;;5066806;28;20051;-77
2023/08/17 05:17:56;;;;;;;4.05;1.55;;;15.60;99.90;;;;;;5061778;28;20040;-78
2023/08/17 05:20:21;;;;;;;3.08;1.65;;;15.60;99.90;;;;;;5068782;28;20044;-78
2023/08/17 05:22:47;;;;;;;2.83;1.80;;;15.70;99.90;;;;;;5062123;28;20036;-77
2023/08/17 05:25:13;;;;;;;5.40;1.75;;;15.70;99.90;;;;;;5063366;28;20123;-78
2023/08/17 05:27:39;;;;;;;3.88;1.58;;;15.80;99.90;;;;;;5055575;28;20116;-78
2023/08/17 05:30:05;;;;;;;4.40;1.50;;;15.90;99.90;;;;;;5073256;28;20068;-78
2023/08/17 05:32:31;;;;;;;4.70;1.50;;;15.90;99.90;;;;;;5073318;28;20457;-78
2023/08/17 05:34:56;;;;;;;7.38;1.80;;;16.00;99.90;;;;;;5039321;28;1029954;-78
2023/08/17 05:37:22;;;;;;;4.35;1.88;;;16.10;99.90;;;;;;5083774;28;20051;-78
2023/08/17 05:39:48;;;;;;;3.88;1.70;;;16.20;99.90;;;;;;5067808;28;20047;-79
2023/08/17 05:42:13;;;;;;;6.40;1.60;;;16.30;99.90;;;;;;5074291;28;20032;-79
2023/08/17 05:44:39;;;;;;;5.40;1.67;;;16.40;99.90;;;;;;5076089;28;20609;-78
2023/08/17 05:47:04;;;;;;;4.97;2.30;;;16.40;99.90;;;;;;5063699;28;20069;-78
2023/08/17 05:49:30;;;;;;;5.10;1.70;;;16.50;99.90;;;;;;5065934;28;20057;-79
2023/08/17 05:51:55;;;;;;;4.28;1.52;;;16.60;99.90;;;;;;5074963;28;20115;-78
2023/08/17 05:54:21;;;;;;;3.88;1.70;;;16.70;99.90;;;;;;5074762;28;20038;-78
2023/08/17 05:56:47;;;;;;;9.15;2.17;;;16.80;99.90;;;;;;5073345;28;21571;-78
2023/08/17 05:59:13;;;;;;;6.82;1.80;;;16.90;99.90;;;;;;5090981;28;20039;-78
2023/08/17 06:01:40;;;;;;;3.13;1.70;;;17.00;99.90;;;;;;5073339;28;20064;-79
2023/08/17 06:04:05;;;;;;;4.38;1.40;;;17.10;99.90;;;;;;5073219;28;20044;-78
2023/08/17 06:06:31;;;;;;;3.55;1.75;;;17.10;99.90;;;;;;5073622;28;20031;-78
2023/08/17 06:08:57;;;;;;;4.05;1.38;;;17.20;99.90;;;;;;5074228;28;20044;-77
2023/08/17 06:11:23;;;;;;;5.25;1.67;;;17.30;99.90;;;;;;5077043;28;20035;-77
2023/08/17 06:13:49;;;;;;;7.18;1.77;;;17.30;99.90;;;;;;5073071;28;20042;-77
2023/08/17 06:16:15;;;;;;;3.70;1.75;;;17.40;99.90;;;;;;5065434;28;20045;-79
2023/08/17 06:18:41;;;;;;;5.38;1.60;;;17.40;99.90;;;;;;5065775;28;20032;-77
2023/08/17 06:21:07;;;;;;;7.88;1.85;;;17.50;99.90;;;;;;5065855;28;20051;-77
2023/08/17 06:23:33;;;;;;;6.47;1.83;;;17.60;99.90;;;;;;5065476;28;20071;-80
2023/08/17 06:25:59;;;;;;;4.03;1.65;;;17.60;99.90;;;;;;5066301;28;20072;-80
2023/08/17 06:28:26;;;;;;;7.30;1.80;;;17.70;99.90;;;;;;5066083;28;20119;-80
2023/08/17 06:30:53;;;;;;;4.57;1.35;;;17.80;99.90;;;;;;5073006;28;20040;-78
2023/08/17 06:33:19;;;;;;;8.20;2.00;;;17.80;99.90;;;;;;5056270;28;20043;-79
2023/08/17 06:35:44;;;;;;;7.60;2.00;;;17.80;99.90;;;;;;5074052;28;20044;-78
2023/08/17 06:38:10;;;;;;;8.02;1.70;;;17.70;99.90;;;;;;5066883;28;20396;-78
2023/08/17 06:40:35;;;;;;;5.57;1.75;;;17.70;99.90;;;;;;5071333;28;20085;-78
2023/08/17 06:43:01;;;;;;;5.15;1.70;;;17.70;99.90;;;;;;5078695;28;20077;-79
2023/08/17 06:45:26;;;;;;;5.10;1.83;;;17.70;99.90;;;;;;5064343;28;20431;-78
2023/08/17 06:47:52;;;;;;;5.55;1.98;;;17.70;99.90;;;;;;5052986;28;20406;-79
2023/08/17 06:50:18;;;;;;;5.88;1.77;;;17.70;99.90;;;;;;5067904;28;20457;-79
2023/08/17 06:52:43;;;;;;;5.80;1.67;;;17.70;99.90;;;;;;5054974;28;20039;-77
2023/08/17 06:55:10;;;;;;;6.18;1.90;;;17.70;99.90;;;;;;5070716;28;20051;-79
2023/08/17 06:57:36;;;;;;;4.18;1.70;;;17.70;99.90;;;;;;5062964;28;20039;-79
2023/08/17 07:00:01;;;;;;;6.88;2.45;;;17.70;99.90;;;;;;5094967;28;20047;-77
2023/08/17 07:02:27;;;;;;;4.60;1.60;;;17.70;99.90;;;;;;5071376;28;20491;-76
2023/08/17 07:04:52;;;;;;;7.20;1.60;;;17.70;99.90;;;;;;5075980;28;20410;-76
2023/08/17 07:07:18;;;;;;;4.88;1.60;;;17.70;99.90;;;;;;5079726;28;20035;-79
2023/08/17 07:09:43;;;;;;;7.53;1.52;;;17.70;99.90;;;;;;5074261;28;20093;-77
2023/08/17 07:12:09;;;;;;;4.30;1.60;;;17.70;99.90;;;;;;5070845;28;20036;-78
2023/08/17 07:14:34;;;;;;;4.85;1.48;;;17.70;99.90;;;;;;5070821;28;20085;-77
2023/08/17 07:17:00;;;;;;;4.97;1.70;;;17.70;99.90;;;;;;5071041;28;20075;-77
2023/08/17 07:19:25;;;;;;;5.22;1.60;;;17.80;99.90;;;;;;5069947;28;20124;-77
2023/08/17 07:21:51;;;;;;;6.13;1.67;;;17.90;99.90;;;;;;5073552;28;20036;-76
2023/08/17 07:24:17;;;;;;;4.68;1.40;;;18.00;99.90;;;;;;5073806;28;20458;-76
2023/08/17 07:26:43;;;;;;;4.55;1.80;;;18.10;99.90;;;;;;5079243;28;20062;-76
2023/08/17 07:29:08;;;;;;;5.78;1.40;;;18.10;99.90;;;;;;5071862;28;20036;-76
2023/08/17 07:31:37;;;;;;;4.55;1.58;;;18.20;99.90;;;;;;5073412;28;20073;-77
2023/08/17 07:34:03;;;;;;;7.18;1.65;;;18.20;99.90;;;;;;5073009;28;20032;-77
2023/08/17 07:36:29;;;;;;;3.88;1.25;;;18.20;99.90;;;;;;5056271;28;20082;-76
2023/08/17 07:38:54;;;;;;;3.80;1.20;;;18.20;99.90;;;;;;5073566;28;20445;-83
2023/08/17 07:41:20;;;;;;;7.15;1.30;;;18.30;99.90;;;;;;5072553;28;20034;-79
2023/08/17 07:43:45;;;;;;;4.82;1.05;;;18.50;99.90;;;;;;5072819;28;20389;-77
2023/08/17 07:46:11;;;;;;;3.55;1.23;;;18.80;99.90;;;;;;5071565;28;20124;-79
2023/08/17 07:48:37;;;;;;;3.90;1.27;;;18.90;99.90;;;;;;5072903;28;20153;-77
2023/08/17 07:51:02;;;;;;;3.88;1.15;;;18.80;99.90;;;;;;5082955;28;20040;-79
2023/08/17 07:53:28;;;;;;;3.28;1.38;;;18.70;99.90;;;;;;5065032;28;20040;-77
2023/08/17 07:55:54;;;;;;;4.97;1.08;;;18.70;99.90;;;;;;5066954;28;20080;-77
2023/08/17 07:58:19;;;;;;;3.92;1.00;;;18.50;99.90;;;;;;5066582;28;20032;-77
2023/08/17 08:00:45;;;;;;;4.57;1.33;;;18.40;99.90;;;;;;5064632;28;20404;-78
2023/08/17 08:03:10;;;;;;;6.70;1.13;;;18.40;99.90;;;;;;5067859;28;20052;-77
2023/08/17 08:05:36;;;;;;;2.95;0.93;;;18.30;99.90;;;;;;5056901;28;20051;-78
2023/08/17 08:08:01;;;;;;;3.83;1.10;;;18.40;99.90;;;;;;5072526;28;20028;-78
2023/08/17 08:10:28;;;;;;;6.10;1.27;;;18.40;99.90;;;;;;5067144;28;20040;-78
2023/08/17 08:12:53;;;;;;;5.10;1.42;;;18.40;99.90;;;;;;5076227;28;20439;-76
2023/08/17 08:15:19;;;;;;;4.40;1.13;;;18.40;99.90;;;;;;5073171;28;20075;-78
2023/08/17 08:17:44;;;;;;;7.07;1.38;;;18.40;99.90;;;;;;5072683;28;20072;-78
2023/08/17 08:20:10;;;;;;;5.80;1.23;;;18.50;99.90;;;;;;5073141;28;20062;-77
2023/08/17 08:22:36;;;;;;;5.22;1.30;;;18.50;99.90;;;;;;5074387;28;20032;-79
2023/08/17 08:25:02;;;;;;;3.92;1.13;;;18.50;99.90;;;;;;5067507;28;20109;-79
2023/08/17 08:27:27;;;;;;;4.10;1.30;;;18.60;99.90;;;;;;5062793;28;20066;-75
2023/08/17 08:29:53;;;;;;;2.47;0.90;;;18.60;99.90;;;;;;5074071;28;20041;-77
2023/08/17 08:32:18;;;;;;;4.15;1.10;;;18.70;99.90;;;;;;5055852;28;20040;-78
2023/08/17 08:34:44;;;;;;;9.10;1.42;;;18.70;99.90;;;;;;5077459;28;20124;-77
2023/08/17 08:37:10;;;;;;;2.53;1.10;;;18.80;99.90;;;;;;5075944;28;20043;-76
2023/08/17 08:39:49;;;;;;;5.05;1.42;;;18.80;99.90;;;;;;5075904;28;20063;-77
2023/08/17 08:42:15;;;;;;;4.95;1.25;;;18.80;99.90;;;;;;5077971;28;20135;-78
2023/08/17 08:44:41;;;;;;;4.32;1.27;;;18.80;99.90;;;;;;5057850;28;20119;-77
2023/08/17 08:47:07;;;;;;;5.53;1.30;;;18.80;99.90;;;;;;5076423;28;20527;-77
2023/08/17 08:49:36;;;;;;;4.18;1.15;;;18.80;99.90;;;;;;5076754;28;20110;-79
2023/08/17 08:52:04;;;;;;;3.38;1.00;;;18.80;99.90;;;;;;5076279;28;20036;-77
2023/08/17 08:54:31;;;;;;;2.92;1.00;;;18.80;99.90;;;;;;5076041;28;20047;-77
2023/08/17 08:57:01;;;;;;;4.35;1.10;;;18.90;99.90;;;;;;5074896;28;20518;-76
2023/08/17 08:59:28;;;;;;;4.10;1.00;;;18.90;99.90;;;;;;5068853;28;20093;-76
2023/08/17 09:01:56;;;;;;;4.88;1.20;;;19.00;99.90;;;;;;5075933;28;20040;-76
2023/08/17 09:04:23;;;;;;;3.75;1.13;;;19.10;99.90;;;;;;5071590;28;20547;-76
2023/08/17 09:06:51;;;;;;;5.55;1.17;;;19.20;99.90;;;;;;5073155;28;20032;-77
2023/08/17 09:09:17;;;;;;;3.78;0.98;;;19.40;99.90;;;;;;5070954;28;20504;-76
2023/08/17 09:11:43;;;;;;;4.55;1.25;;;19.50;99.90;;;;;;5075351;28;20043;-77
2023/08/17 09:14:09;;;;;;;3.47;1.00;;;19.70;99.90;;;;;;5080478;28;20032;-77
2023/08/17 09:16:34;;;;;;;4.45;0.95;;;19.80;99.90;;;;;;5076186;28;20047;-79
2023/08/17 09:19:00;;;;;;;3.17;1.20;;;20.00;99.90;;;;;;5076295;28;20062;-78
2023/08/17 09:21:26;;;;;;;2.60;1.27;;;20.20;99.90;;;;;;5077088;28;20031;-78
2023/08/17 09:23:53;;;;;;;3.22;1.17;;;20.30;99.90;;;;;;5074524;28;20065;-78
2023/08/17 09:26:22;;;;;;;6.20;1.20;;;20.30;99.90;;;;;;5075358;28;20062;-78
2023/08/17 09:28:47;;;;;;;4.00;1.23;;;20.30;99.90;;;;;;5094323;28;20039;-77
2023/08/17 09:31:13;;;;;;;5.85;1.15;;;20.40;99.90;;;;;;5077204;28;20042;-77
2023/08/17 09:33:38;;;;;;;3.28;1.00;;;20.40;99.90;;;;;;5073735;28;20047;-76
2023/08/17 09:36:04;;;;;;;4.78;1.20;;;20.40;99.90;;;;;;5062377;28;20506;-77
2023/08/17 09:38:30;;;;;;;4.13;1.13;;;20.30;99.90;;;;;;5092980;28;20038;-76
2023/08/17 09:40:57;;;;;;;6.15;1.20;;;20.30;99.90;;;;;;5065898;28;20047;-78
2023/08/17 09:43:24;;;;;;;3.10;1.20;;;20.30;99.90;;;;;;5073178;28;20081;-77
2023/08/17 09:45:50;;;;;;;4.07;1.30;;;20.30;99.90;;;;;;5075579;28;20507;-77
2023/08/17 09:48:20;;;;;;;5.57;1.20;;;20.20;99.90;;;;;;5076489;28;20125;-78
2023/08/17 09:50:47;;;;;;;4.50;1.20;;;20.30;99.90;;;;;;5077850;28;20419;-77
2023/08/17 09:53:14;;;;;;;5.85;1.30;;;20.50;99.90;;;;;;5050490;28;20111;-76
2023/08/17 09:55:42;;;;;;;3.85;1.00;;;20.40;99.90;;;;;;5072769;28;20062;-76
2023/08/17 09:58:08;;;;;;;3.47;1.13;;;20.40;99.90;;;;;;5075488;28;20121;-78
2023/08/17 10:00:34;;;;;;;4.35;1.23;;;20.40;99.90;;;;;;5079788;28;20075;-76
2023/08/17 10:03:02;;;;;;;5.57;1.30;;;20.30;99.90;;;;;;5074089;28;20036;-77
2023/08/17 10:05:31;;;;;;;6.20;1.30;;;20.30;99.90;;;;;;5058193;28;20440;-78
2023/08/17 10:07:59;;;;;;;3.33;1.35;;;20.30;99.90;;;;;;5069398;28;20086;-78
2023/08/17 10:10:27;;;;;;;4.15;1.38;;;20.40;99.90;;;;;;5063362;28;20040;-76
2023/08/17 10:13:13;;;;;;;5.93;1.52;;;20.50;99.90;;;;;;5070786;28;20036;-76
2023/08/17 10:15:47;;;;;;;5.63;1.20;;;20.50;99.90;;;;;;5073936;28;20499;-76
2023/08/17 10:18:26;;;;;;;5.85;1.33;;;20.60;99.90;;;;;;5073488;28;20077;-77
2023/08/17 10:21:02;;;;;;;4.00;1.35;;;20.50;99.90;;;;;;5076119;28;20050;-76
2023/08/17 10:23:29;;;;;;;7.15;1.15;;;20.50;99.90;;;;;;5071594;28;20035;-77
2023/08/17 10:25:55;;;;;;;2.85;1.30;;;20.40;99.90;;;;;;5083048;28;20076;-77
2023/08/17 10:28:24;;;;;;;5.15;1.30;;;20.50;99.90;;;;;;5075905;28;20042;-78
2023/08/17 10:30:51;;;;;;;5.82;1.40;;;20.50;99.90;;;;;;5085055;28;20035;-77
2023/08/17 10:33:17;;;;;;;5.35;1.50;;;20.60;99.90;;;;;;5074260;28;20044;-77
2023/08/17 10:35:44;;;;;;;3.88;1.40;;;20.60;99.90;;;;;;5063428;28;20042;-77
2023/08/17 10:38:10;;;;;;;4.28;1.33;;;20.80;99.90;;;;;;5066378;28;20108;-78
2023/08/17 10:40:39;;;;;;;5.75;1.50;;;20.80;99.90;;;;;;5061016;28;20506;-76
2023/08/17 10:43:04;;;;;;;4.22;1.30;;;21.00;99.90;;;;;;5062099;28;20123;-77
2023/08/17 10:45:32;;;;;;;4.82;1.15;;;21.20;99.90;;;;;;5080019;28;20118;-77
2023/08/17 10:48:06;;;;;;;3.72;1.40;;;21.30;99.90;;;;;;5069425;28;20043;-75
2023/08/17 10:50:33;;;;;;;5.30;1.17;;;21.60;99.90;;;;;;5070973;28;20057;-79
2023/08/17 10:53:04;;;;;;;2.97;1.30;;;21.80;99.90;;;;;;5072100;28;20042;-76
2023/08/17 10:55:40;;;;;;;8.82;1.60;;;22.10;99.90;;;;;;5070871;28;20040;-78
2023/08/17 10:58:08;;;;;;;2.30;1.00;;;22.30;99.90;;;;;;5075070;28;20064;-77
2023/08/17 11:00:38;;;;;;;4.13;1.40;;;22.60;99.90;;;;;;5068500;28;20503;-77
2023/08/17 11:03:11;;;;;;;2.88;1.40;;;22.90;99.90;;;;;;5090623;28;20685;-79
2023/08/17 11:05:44;;;;;;;6.38;1.40;;;23.10;99.90;;;;;;5066750;28;20041;-80
2023/08/17 11:08:29;;;;;;;3.85;1.80;;;23.30;99.90;;;;;;5074967;28;20376;-77
2023/08/17 11:11:12;;;;;;;4.65;1.27;;;23.30;99.90;;;;;;5068400;28;20119;-77
2023/08/17 11:13:40;;;;;;;6.00;1.60;;;23.10;99.90;;;;;;5071112;28;20426;-75
2023/08/17 11:16:06;;;;;;;4.63;1.30;;;22.80;99.90;;;;;;5065939;28;20035;-76
2023/08/17 11:18:32;;;;;;;3.65;1.33;;;22.40;99.90;;;;;;5052857;28;20404;-77
2023/08/17 11:20:58;;;;;;;5.00;1.30;;;22.20;99.90;;;;;;5071690;28;20123;-76
2023/08/17 11:23:24;;;;;;;8.02;1.40;;;22.10;99.90;;;;;;5064466;28;20118;-76
2023/08/17 11:25:52;;;;;;;4.75;1.50;;;22.10;99.90;;;;;;5071034;28;20056;-76
2023/08/17 11:28:18;;;;;;;5.55;1.70;;;22.00;99.90;;;;;;5074683;28;20036;-76
2023/08/17 11:30:44;;;;;;;5.43;1.90;;;21.90;99.90;;;;;;5067725;28;20040;-77
2023/08/17 11:33:10;;;;;;;4.75;1.88;;;22.00;99.90;;;;;;5070257;28;20066;-77
2023/08/17 11:35:36;;;;;;;5.07;1.63;;;21.80;99.90;;;;;;5059366;28;20068;-76
2023/08/17 11:38:03;;;;;;;4.22;1.50;;;22.00;99.90;;;;;;5068377;28;20039;-76
2023/08/17 11:40:29;;;;;;;3.30;1.75;;;21.90;99.90;;;;;;5073654;28;20071;-76
2023/08/17 11:42:55;;;;;;;3.67;1.50;;;22.00;99.90;;;;;;5073985;28;20038;-75
2023/08/17 11:45:20;;;;;;;5.53;1.92;;;22.10;99.90;;;;;;5073448;28;20028;-75
2023/08/17 11:47:47;;;;;;;3.47;1.67;;;22.30;99.90;;;;;;5072566;28;20101;-75
2023/08/17 11:50:13;;;;;;;2.83;1.50;;;22.30;99.90;;;;;;5070723;28;20044;-76
2023/08/17 11:52:39;;;;;;;5.28;1.90;;;22.20;99.90;;;;;;5071670;28;20064;-77
2023/08/17 11:55:06;;;;;;;3.63;1.50;;;22.10;99.90;;;;;;5090269;28;20078;-76
2023/08/17 11:57:35;;;;;;;2.90;1.50;;;22.00;99.90;;;;;;5073110;28;20047;-76
2023/08/17 12:00:02;;;;;;;3.85;1.52;;;22.00;99.90;;;;;;5069226;28;20736;-76
2023/08/17 12:02:29;;;;;;;4.65;1.83;;;22.10;99.90;;;;;;5057118;28;20078;-76
2023/08/17 12:04:56;;;;;;;4.82;1.80;;;22.20;99.90;;;;;;5074609;28;20131;-75
2023/08/17 12:07:24;;;;;;;3.50;1.50;;;22.20;99.90;;;;;;5076994;28;20530;-77
2023/08/17 12:09:51;;;;;;;6.22;1.85;;;22.20;99.90;;;;;;5075382;28;20047;-76
2023/08/17 12:12:25;;;;;;;5.22;1.88;;;22.20;99.90;;;;;;5076472;28;20119;-76
2023/08/17 12:14:50;;;;;;;3.80;1.65;;;22.10;99.90;;;;;;5081755;28;20039;-76
2023/08/17 12:17:20;;;;;;;4.07;1.60;;;22.10;99.90;;;;;;5074617;28;20066;-76
2023/08/17 12:19:49;;;;;;;5.13;2.00;;;22.00;99.90;;;;;;5077766;28;20407;-76
2023/08/17 12:22:16;;;;;;;7.05;1.90;;;22.00;99.90;;;;;;5080540;28;20858;-76
2023/08/17 12:24:42;;;;;;;4.78;1.63;;;22.00;99.90;;;;;;5076405;28;20440;-75
2023/08/17 12:27:07;;;;;;;4.60;1.75;;;22.10;99.90;;;;;;5079690;28;20075;-77
2023/08/17 12:29:33;;;;;;;3.88;1.80;;;22.20;99.90;;;;;;5074914;28;20088;-78
2023/08/17 12:32:01;;;;;;;7.10;2.00;;;22.30;99.90;;;;;;5094382;28;20039;-77
2023/08/17 12:34:27;;;;;;;7.53;1.92;;;22.30;99.90;;;;;;5059737;28;20044;-77
2023/08/17 12:36:52;;;;;;;4.28;1.70;;;22.30;99.90;;;;;;5080111;28;20047;-77
2023/08/17 12:39:18;;;;;;;3.88;1.83;;;22.20;99.90;;;;;;5076347;28;20092;-76
2023/08/17 12:41:44;;;;;;;6.22;1.63;;;22.20;99.90;;;;;;5080551;28;20061;-76
2023/08/17 12:44:13;;;;;;;4.13;2.10;;;22.20;99.90;;;;;;5077655;28;20055;-76